createdAt,value
2022-09-11T00:01:40.411Z,5.53
2022-09-11T00:04:08.126Z,8.90
2022-09-11T00:06:35.534Z,5.43
2022-09-11T00:09:05.574Z,7.93
2022-09-11T00:11:40.703Z,6.03
2022-09-11T00:14:17.211Z,6.07
2022-09-11T00:16:47.511Z,6.50
2022-09-11T00:19:18.974Z,7.57
2022-09-11T00:21:47.078Z,6.60
2022-09-11T00:24:14.051Z,7.17
2022-09-11T00:26:42.665Z,7.43
2022-09-11T00:29:10.845Z,7.10
2022-09-11T00:31:38.002Z,7.03
2022-09-11T00:34:06.961Z,7.50
2022-09-11T00:36:36.390Z,6.27
2022-09-11T00:39:04.237Z,9.83
2022-09-11T00:41:44.978Z,17.53
2022-09-11T00:44:16.867Z,8.57
2022-09-11T00:46:59.317Z,7.27
2022-09-11T00:49:33.198Z,10.03
2022-09-11T00:52:06.348Z,19.23
2022-09-11T00:54:41.954Z,16.23
2022-09-11T00:57:09.998Z,18.63
2022-09-11T00:59:42.227Z,14.63
2022-09-11T01:02:14.210Z,13.70
2022-09-11T01:04:41.470Z,12.00
2022-09-11T01:07:08.947Z,13.67
2022-09-11T01:09:35.979Z,11.80
2022-09-11T01:12:21.301Z,12.63
2022-09-11T01:15:03.797Z,15.53
2022-09-11T01:17:55.293Z,10.47
2022-09-11T01:20:53.358Z,14.50
2022-09-11T01:24:09.322Z,17.50
2022-09-11T01:27:01.996Z,9.10
2022-09-11T01:29:55.362Z,7.97
2022-09-11T01:32:32.077Z,8.40
2022-09-11T01:35:15.587Z,8.73
2022-09-11T01:38:06.576Z,13.70
2022-09-11T01:40:57.664Z,13.83
2022-09-11T01:43:31.868Z,12.07
2022-09-11T01:46:03.941Z,8.90
2022-09-11T01:48:46.618Z,10.93
2022-09-11T01:51:21.271Z,12.40
2022-09-11T01:53:51.765Z,11.70
2022-09-11T01:56:28.236Z,9.70
2022-09-11T01:59:01.520Z,9.23
2022-09-11T02:01:34.343Z,9.80
2022-09-11T02:04:18.627Z,9.87
2022-09-11T02:07:05.145Z,12.70
2022-09-11T02:09:43.563Z,13.60
2022-09-11T02:12:15.206Z,19.40
2022-09-11T02:14:48.000Z,25.87
2022-09-11T02:17:31.725Z,22.27
2022-09-11T02:20:01.051Z,25.27
2022-09-11T02:22:28.225Z,32.43
2022-09-11T02:24:56.008Z,29.73
2022-09-11T02:27:27.874Z,29.80
2022-09-11T02:29:56.463Z,42.70
2022-09-11T02:32:25.958Z,47.43
2022-09-11T02:34:57.433Z,43.70
2022-09-11T02:38:01.642Z,48.73
2022-09-11T02:40:47.064Z,33.33
2022-09-11T02:43:50.017Z,26.83
2022-09-11T02:46:32.118Z,18.57
2022-09-11T02:49:38.211Z,13.47
2022-09-11T02:52:27.991Z,14.03
2022-09-11T02:55:20.362Z,9.27
2022-09-11T02:58:03.741Z,10.10
2022-09-11T03:00:30.775Z,9.33
2022-09-11T03:02:59.214Z,12.33
2022-09-11T03:05:26.866Z,8.47
2022-09-11T03:07:53.835Z,9.43
2022-09-11T03:10:21.059Z,11.27
2022-09-11T03:12:48.210Z,8.63
2022-09-11T03:15:16.815Z,9.60
2022-09-11T03:17:44.624Z,14.03
2022-09-11T03:20:11.915Z,15.93
2022-09-11T03:22:39.825Z,21.43
2022-09-11T03:25:07.529Z,17.77
2022-09-11T03:27:34.531Z,18.03
2022-09-11T03:30:01.519Z,14.23
2022-09-11T03:32:28.527Z,15.10
2022-09-11T03:34:55.541Z,20.80
2022-09-11T03:37:22.595Z,20.17
2022-09-11T03:39:49.661Z,27.37
2022-09-11T03:42:16.755Z,40.40
2022-09-11T03:44:43.945Z,46.37
2022-09-11T03:47:11.979Z,29.13
2022-09-11T03:49:39.739Z,25.43
2022-09-11T03:52:06.790Z,18.47
2022-09-11T03:54:34.479Z,28.73
2022-09-11T03:57:01.607Z,23.20
2022-09-11T03:59:29.184Z,27.33
2022-09-11T04:01:56.461Z,20.20
2022-09-11T04:04:23.870Z,25.70
2022-09-11T04:06:50.888Z,21.80
2022-09-11T04:09:18.054Z,27.47
2022-09-11T04:11:45.073Z,21.17
2022-09-11T04:14:12.456Z,27.70
2022-09-11T04:16:39.477Z,17.63
2022-09-11T04:19:06.590Z,14.70
2022-09-11T04:21:34.855Z,23.20
2022-09-11T04:24:02.345Z,21.77
2022-09-11T04:26:32.065Z,31.83
2022-09-11T04:29:00.261Z,40.00
2022-09-11T04:31:27.880Z,47.60
2022-09-11T04:33:57.739Z,56.80
2022-09-11T04:36:26.997Z,44.30
2022-09-11T04:38:58.334Z,48.10
2022-09-11T04:41:25.846Z,51.63
2022-09-11T04:44:02.388Z,58.67
2022-09-11T04:46:31.919Z,43.80
2022-09-11T04:49:04.741Z,35.30
2022-09-11T04:51:35.177Z,32.73
2022-09-11T04:54:03.594Z,35.67
2022-09-11T04:56:34.341Z,42.00
2022-09-11T04:59:19.529Z,39.97
2022-09-11T05:01:46.850Z,30.83
2022-09-11T05:04:15.409Z,37.87
2022-09-11T05:06:45.386Z,23.40
2022-09-11T05:09:12.439Z,28.47
2022-09-11T05:11:39.521Z,27.87
2022-09-11T05:14:07.083Z,25.07
2022-09-11T05:16:35.182Z,23.60
2022-09-11T05:19:04.367Z,21.90
2022-09-11T05:21:33.337Z,30.90
2022-09-11T05:24:01.984Z,29.80
2022-09-11T05:26:33.353Z,27.10
2022-09-11T05:29:04.447Z,27.73
2022-09-11T05:31:34.458Z,28.57
2022-09-11T05:34:03.250Z,30.30
2022-09-11T05:36:34.321Z,28.60
2022-09-11T05:39:01.860Z,44.20
2022-09-11T05:41:28.959Z,52.40
2022-09-11T05:43:56.099Z,43.10
2022-09-11T05:46:23.123Z,53.87
2022-09-11T05:48:50.129Z,54.43
2022-09-11T05:51:21.955Z,35.70
2022-09-11T05:53:56.834Z,26.40
2022-09-11T05:56:25.880Z,32.70
2022-09-11T05:58:53.272Z,30.03
2022-09-11T06:01:28.772Z,32.80
2022-09-11T06:03:56.509Z,27.33
2022-09-11T06:06:24.435Z,30.30
2022-09-11T06:08:52.947Z,31.20
2022-09-11T06:11:21.936Z,36.33
2022-09-11T06:13:49.819Z,32.80
2022-09-11T06:16:20.572Z,34.60
2022-09-11T06:18:49.593Z,31.43
2022-09-11T06:21:20.248Z,25.67
2022-09-11T06:23:49.470Z,42.17
2022-09-11T06:26:21.949Z,31.63
2022-09-11T06:28:50.995Z,32.60
2022-09-11T06:31:24.738Z,35.47
2022-09-11T06:33:52.219Z,36.00
2022-09-11T06:36:26.862Z,50.63
2022-09-11T06:38:58.465Z,28.40
2022-09-11T06:41:27.543Z,34.40
2022-09-11T06:43:54.852Z,26.73
2022-09-11T06:46:24.382Z,29.17
2022-09-11T06:48:52.956Z,27.63
2022-09-11T06:51:23.288Z,31.10
2022-09-11T06:53:57.759Z,27.43
2022-09-11T06:56:25.548Z,31.60
2022-09-11T06:58:52.973Z,29.80
2022-09-11T07:01:21.902Z,25.00
2022-09-11T07:03:51.878Z,38.73
2022-09-11T07:06:25.434Z,37.17
2022-09-11T07:08:59.131Z,24.43
2022-09-11T07:11:26.742Z,30.37
2022-09-11T07:13:54.136Z,22.27
2022-09-11T07:16:21.178Z,25.80
2022-09-11T07:18:48.372Z,24.53
2022-09-11T07:21:27.071Z,23.53
2022-09-11T07:23:57.785Z,28.30
2022-09-11T07:26:27.987Z,18.83
2022-09-11T07:28:57.671Z,17.90
2022-09-11T07:31:31.132Z,23.07
2022-09-11T07:33:58.140Z,18.83
2022-09-11T07:36:30.146Z,23.17
2022-09-11T07:38:58.867Z,19.20
2022-09-11T07:41:28.119Z,16.70
2022-09-11T07:43:57.843Z,21.70
2022-09-11T07:46:25.915Z,21.30
2022-09-11T07:48:55.289Z,14.97
2022-09-11T07:51:22.328Z,15.47
2022-09-11T07:53:52.161Z,16.53
2022-09-11T07:56:25.812Z,13.20
2022-09-11T07:58:57.544Z,13.00
2022-09-11T08:01:27.679Z,18.83
2022-09-11T08:03:58.273Z,12.30
2022-09-11T08:06:29.681Z,10.90
2022-09-11T08:09:01.766Z,21.30
2022-09-11T08:11:58.132Z,20.60
2022-09-11T08:14:29.664Z,12.50
2022-09-11T08:17:44.198Z,10.73
2022-09-11T08:20:20.578Z,12.43
2022-09-11T08:22:47.938Z,14.30
2022-09-11T08:25:21.042Z,14.47
2022-09-11T08:28:26.748Z,12.70
2022-09-11T08:31:09.552Z,10.80
2022-09-11T08:33:41.069Z,18.67
2022-09-11T08:36:33.066Z,11.50
2022-09-11T08:39:04.199Z,11.23
2022-09-11T08:41:57.716Z,13.43
2022-09-11T08:44:59.768Z,12.00
2022-09-11T08:48:24.345Z,11.27
2022-09-11T08:51:01.858Z,11.67
2022-09-11T08:53:36.113Z,13.30
2022-09-11T08:56:45.104Z,11.67
2022-09-11T09:00:21.766Z,15.80
2022-09-11T09:03:57.134Z,11.53
2022-09-11T09:07:12.786Z,12.03
2022-09-11T09:10:32.676Z,12.47
2022-09-11T09:13:31.114Z,10.47
2022-09-11T09:16:53.047Z,11.23
2022-09-11T09:19:46.975Z,13.23
2022-09-11T09:22:44.866Z,15.53
2022-09-11T09:25:18.473Z,16.23
2022-09-11T09:28:10.362Z,15.27
2022-09-11T09:30:58.704Z,14.33
2022-09-11T09:33:49.749Z,17.43
2022-09-11T09:36:40.599Z,57.10
2022-09-11T09:39:23.933Z,19.93
2022-09-11T09:42:02.308Z,16.43
2022-09-11T09:45:34.733Z,16.73
2022-09-11T09:48:41.694Z,16.70
2022-09-11T09:55:10.737Z,13.23
2022-09-11T09:58:21.443Z,11.73
2022-09-11T10:01:15.312Z,13.93
2022-09-11T10:04:28.989Z,10.80
2022-09-11T10:07:59.751Z,11.40
2022-09-11T10:10:52.830Z,9.70
2022-09-11T10:13:35.031Z,13.40
2022-09-11T10:16:50.119Z,11.67
2022-09-11T10:19:45.711Z,10.60
2022-09-11T10:22:36.632Z,11.63
2022-09-11T10:25:25.266Z,18.40
2022-09-11T10:28:18.627Z,54.93
2022-09-11T10:31:26.608Z,12.33
2022-09-11T10:34:18.231Z,15.27
2022-09-11T10:37:06.969Z,8.50
2022-09-11T10:40:30.307Z,11.00
2022-09-11T10:43:55.347Z,9.53
2022-09-11T10:47:14.313Z,8.80
2022-09-11T10:49:47.859Z,11.90
2022-09-11T10:52:23.775Z,9.10
2022-09-11T10:55:15.861Z,8.63
2022-09-11T10:57:54.208Z,7.73
2022-09-11T11:00:30.045Z,8.63
2022-09-11T11:03:25.731Z,8.57
2022-09-11T11:06:47.567Z,8.40
2022-09-11T11:09:43.779Z,8.40
2022-09-11T11:13:06.834Z,21.97
2022-09-11T11:16:17.707Z,7.63
2022-09-11T11:19:11.519Z,8.27
2022-09-11T11:22:09.542Z,7.73
2022-09-11T11:24:40.085Z,9.83
2022-09-11T11:27:57.659Z,15.67
2022-09-11T11:30:44.960Z,10.60
2022-09-11T11:33:42.988Z,9.33
2022-09-11T11:37:13.067Z,20.00
2022-09-11T11:40:23.828Z,9.70
2022-09-11T11:43:07.636Z,8.20
2022-09-11T11:45:45.317Z,7.07
2022-09-11T11:48:40.164Z,7.77
2022-09-11T11:51:29.576Z,6.73
2022-09-11T11:58:42.757Z,9.63
2022-09-11T12:01:51.198Z,46.27
2022-09-11T12:05:02.408Z,6.50
2022-09-11T12:07:43.946Z,8.47
2022-09-11T12:10:41.318Z,5.77
2022-09-11T12:13:35.280Z,7.90
2022-09-11T12:16:15.361Z,4.73
2022-09-11T12:19:01.859Z,5.60
2022-09-11T12:21:31.757Z,7.90
2022-09-11T12:24:28.888Z,6.13
2022-09-11T12:27:37.473Z,9.53
2022-09-11T12:31:00.753Z,5.00
2022-09-11T12:38:49.817Z,5.00
2022-09-11T12:41:56.022Z,6.10
2022-09-11T12:45:21.039Z,5.10
2022-09-11T12:48:09.880Z,9.03
2022-09-11T12:51:15.574Z,6.67
2022-09-11T12:53:50.488Z,14.27
2022-09-11T12:56:36.179Z,4.93
2022-09-11T12:59:13.365Z,4.63
2022-09-11T13:05:41.195Z,7.00
2022-09-11T13:08:44.298Z,4.30
2022-09-11T13:12:14.705Z,4.43
2022-09-11T13:15:21.150Z,5.00
2022-09-11T13:17:51.911Z,8.80
2022-09-11T13:20:48.534Z,4.00
2022-09-11T13:23:29.765Z,3.83
2022-09-11T13:26:20.876Z,4.10
2022-09-11T13:28:51.739Z,4.90
2022-09-11T13:32:04.721Z,4.80
2022-09-11T13:35:04.321Z,4.33
2022-09-11T13:38:48.817Z,4.67
2022-09-11T13:42:27.068Z,28.47
2022-09-11T13:45:19.254Z,32.93
2022-09-11T13:48:29.026Z,5.73
2022-09-11T13:51:09.250Z,8.73
2022-09-11T13:53:38.219Z,4.67
2022-09-11T13:56:30.211Z,5.17
2022-09-11T13:59:36.729Z,5.20
2022-09-11T14:02:45.857Z,4.10
2022-09-11T14:05:42.156Z,4.43
2022-09-11T14:08:56.588Z,3.07
2022-09-11T14:11:33.639Z,4.23
2022-09-11T14:14:24.638Z,2.80
2022-09-11T14:17:24.443Z,6.40
2022-09-11T14:20:34.144Z,3.87
2022-09-11T14:23:06.358Z,4.70
2022-09-11T14:25:34.166Z,3.23
2022-09-11T14:28:48.027Z,2.50
2022-09-11T14:31:47.196Z,2.70
2022-09-11T14:34:23.083Z,2.60
2022-09-11T14:37:11.574Z,3.53
2022-09-11T14:39:49.277Z,3.27
2022-09-11T14:42:20.379Z,2.30
2022-09-11T14:44:48.025Z,3.20
2022-09-11T14:47:25.100Z,2.83
2022-09-11T14:49:54.702Z,2.70
2022-09-11T14:52:26.200Z,3.30
2022-09-11T14:54:53.500Z,3.10
2022-09-11T14:57:24.289Z,3.30
2022-09-11T14:59:55.278Z,3.83
2022-09-11T15:02:26.055Z,3.30
2022-09-11T15:04:56.824Z,3.40
2022-09-11T15:07:25.191Z,6.07
2022-09-11T15:09:54.243Z,5.27
2022-09-11T15:12:22.755Z,3.93
2022-09-11T15:14:56.921Z,3.33
2022-09-11T15:17:25.411Z,3.60
2022-09-11T15:19:53.471Z,3.80
2022-09-11T15:22:20.534Z,8.50
2022-09-11T15:24:49.905Z,5.13
2022-09-11T15:27:19.254Z,5.23
2022-09-11T15:29:46.717Z,6.10
2022-09-11T15:32:14.510Z,21.40
2022-09-11T15:34:42.095Z,45.07
2022-09-11T15:37:09.566Z,5.57
2022-09-11T15:39:36.617Z,4.27
2022-09-11T15:42:04.155Z,5.60
2022-09-11T15:44:31.187Z,7.27
2022-09-11T15:46:59.312Z,9.43
2022-09-11T15:49:30.107Z,5.27
2022-09-11T15:51:58.463Z,4.87
2022-09-11T15:54:26.966Z,6.07
2022-09-11T15:56:54.269Z,4.37
2022-09-11T15:59:21.451Z,4.03
2022-09-11T16:01:48.617Z,2.63
2022-09-11T16:04:20.270Z,3.20
2022-09-11T16:06:50.858Z,3.20
2022-09-11T16:09:22.058Z,2.63
2022-09-11T16:11:50.571Z,2.63
2022-09-11T16:14:18.982Z,2.90
2022-09-11T16:16:47.165Z,2.00
2022-09-11T16:19:17.011Z,2.50
2022-09-11T16:21:44.185Z,2.37
2022-09-11T16:24:12.358Z,2.80
2022-09-11T16:26:39.849Z,4.40
2022-09-11T16:29:08.766Z,5.33
2022-09-11T16:31:36.879Z,2.60
2022-09-11T16:34:05.324Z,3.80
2022-09-11T16:36:38.529Z,2.50
2022-09-11T16:39:12.774Z,3.37
2022-09-11T16:41:40.571Z,2.27
2022-09-11T16:44:11.975Z,2.47
2022-09-11T16:46:40.797Z,4.40
2022-09-11T16:49:08.854Z,2.70
2022-09-11T16:51:36.134Z,5.90
2022-09-11T16:54:04.294Z,3.53
2022-09-11T16:56:31.354Z,3.30
2022-09-11T16:58:58.872Z,3.67
2022-09-11T17:01:27.879Z,4.40
2022-09-11T17:03:57.453Z,3.70
2022-09-11T17:06:30.179Z,2.83
2022-09-11T17:09:00.425Z,2.80
2022-09-11T17:11:31.058Z,2.90
2022-09-11T17:14:01.640Z,35.03
2022-09-11T17:16:32.028Z,48.63
2022-09-11T17:19:00.567Z,3.70
2022-09-11T17:21:29.614Z,3.07
2022-09-11T17:23:57.973Z,2.80
2022-09-11T17:26:25.126Z,2.30
2022-09-11T17:28:53.064Z,4.40
2022-09-11T17:31:20.490Z,2.40
2022-09-11T17:33:49.210Z,3.30
2022-09-11T17:36:21.336Z,4.57
2022-09-11T17:38:52.433Z,5.63
2022-09-11T17:41:21.025Z,2.33
2022-09-11T17:43:49.893Z,3.10
2022-09-11T17:46:20.703Z,4.20
2022-09-11T17:48:48.502Z,3.37
2022-09-11T17:51:21.799Z,3.00
2022-09-11T17:53:58.774Z,2.70
2022-09-11T17:56:32.518Z,4.20
2022-09-11T17:59:00.771Z,8.00
2022-09-11T18:01:31.581Z,4.17
2022-09-11T18:03:59.547Z,3.17
2022-09-11T18:06:34.652Z,2.73
2022-09-11T18:09:19.719Z,7.37
2022-09-11T18:11:49.989Z,4.30
2022-09-11T18:14:18.849Z,3.53
2022-09-11T18:16:47.958Z,4.60
2022-09-11T18:19:18.092Z,5.63
2022-09-11T18:21:49.412Z,4.57
2022-09-11T18:24:20.664Z,5.50
2022-09-11T18:26:51.236Z,5.00
2022-09-11T18:29:20.917Z,12.80
2022-09-11T18:31:51.818Z,5.67
2022-09-11T18:34:26.405Z,12.43
2022-09-11T18:36:53.635Z,6.33
2022-09-11T18:39:21.665Z,7.67
2022-09-11T18:41:49.967Z,7.40
2022-09-11T18:44:20.067Z,6.90
2022-09-11T18:46:48.548Z,5.20
2022-09-11T18:49:16.949Z,8.97
2022-09-11T18:51:44.282Z,13.17
2022-09-11T18:54:20.230Z,6.83
2022-09-11T18:56:49.208Z,6.47
2022-09-11T18:59:16.579Z,6.43
2022-09-11T19:01:43.979Z,6.53
2022-09-11T19:04:14.241Z,6.97
2022-09-11T19:06:41.558Z,12.10
2022-09-11T19:09:12.419Z,8.33
2022-09-11T19:11:40.445Z,6.90
2022-09-11T19:14:10.692Z,12.27
2022-09-11T19:16:38.783Z,7.10
2022-09-11T19:19:09.618Z,12.17
2022-09-11T19:21:38.408Z,7.60
2022-09-11T19:24:07.639Z,8.43
2022-09-11T19:26:39.027Z,7.30
2022-09-11T19:29:08.858Z,13.93
2022-09-11T19:31:39.278Z,6.90
2022-09-11T19:34:10.066Z,6.87
2022-09-11T19:36:37.177Z,7.50
2022-09-11T19:39:05.678Z,11.80
2022-09-11T19:41:38.002Z,9.10
2022-09-11T19:44:07.975Z,10.07
2022-09-11T19:46:35.847Z,8.50
2022-09-11T19:49:05.759Z,10.80
2022-09-11T19:51:37.409Z,13.93
2022-09-11T19:54:05.790Z,13.13
2022-09-11T19:56:36.343Z,9.87
2022-09-11T19:59:04.717Z,10.67
2022-09-11T20:01:32.310Z,12.70
2022-09-11T20:04:00.802Z,16.47
2022-09-11T20:06:31.804Z,15.40
2022-09-11T20:09:20.209Z,10.33
2022-09-11T20:11:47.200Z,17.70
2022-09-11T20:14:14.313Z,11.00
2022-09-11T20:16:42.056Z,11.40
2022-09-11T20:19:10.248Z,16.63
2022-09-11T20:21:38.027Z,12.73
2022-09-11T20:24:09.254Z,18.53
2022-09-11T20:26:36.973Z,11.80
2022-09-11T20:29:12.236Z,11.10
2022-09-11T20:31:46.911Z,16.37
2022-09-11T20:34:16.606Z,10.57
2022-09-11T20:36:43.607Z,12.33
2022-09-11T20:39:13.679Z,16.20
2022-09-11T20:41:41.186Z,11.90
2022-09-11T20:44:08.417Z,15.10
2022-09-11T20:46:35.500Z,11.70
2022-09-11T20:49:04.052Z,11.50
2022-09-11T20:51:31.118Z,15.93
2022-09-11T20:53:58.112Z,10.43
2022-09-11T20:56:25.183Z,10.90
2022-09-11T20:58:52.829Z,16.60
2022-09-11T21:01:23.494Z,13.63
2022-09-11T21:03:56.649Z,13.67
2022-09-11T21:06:27.026Z,9.23
2022-09-11T21:08:59.576Z,10.60
2022-09-11T21:11:29.546Z,8.47
2022-09-11T21:13:57.082Z,10.37
2022-09-11T21:16:24.334Z,10.47
2022-09-11T21:18:55.281Z,7.87
2022-09-11T21:21:23.607Z,5.10
2022-09-11T21:23:58.251Z,6.30
2022-09-11T21:26:26.358Z,7.73
2022-09-11T21:28:53.495Z,10.63
2022-09-11T21:31:20.663Z,8.97
2022-09-11T21:33:47.851Z,6.67
2022-09-11T21:36:15.203Z,9.40
2022-09-11T21:38:42.432Z,8.43
2022-09-11T21:41:11.533Z,5.67
2022-09-11T21:43:39.164Z,7.00
2022-09-11T21:46:08.929Z,5.37
2022-09-11T21:48:39.173Z,6.53
2022-09-11T21:51:10.012Z,10.30
2022-09-11T21:53:39.266Z,5.37
2022-09-11T21:56:07.789Z,4.00
2022-09-11T21:58:34.796Z,5.57
2022-09-11T22:01:08.430Z,5.10
2022-09-11T22:03:35.962Z,5.30
2022-09-11T22:06:07.997Z,4.17
2022-09-11T22:08:35.638Z,8.40
2022-09-11T22:11:04.550Z,4.90
2022-09-11T22:13:32.970Z,5.67
2022-09-11T22:16:00.442Z,5.67
2022-09-11T22:18:27.514Z,3.63
2022-09-11T22:20:58.323Z,3.93
2022-09-11T22:23:25.444Z,4.60
2022-09-11T22:26:13.128Z,4.10
2022-09-11T22:28:40.585Z,4.10
2022-09-11T22:31:10.455Z,4.83
2022-09-11T22:33:41.802Z,4.47
2022-09-11T22:36:19.857Z,6.43
2022-09-11T22:38:48.586Z,3.97
2022-09-11T22:41:17.282Z,5.90
2022-09-11T22:43:45.298Z,7.07
2022-09-11T22:46:12.623Z,3.87
2022-09-11T22:48:40.144Z,3.70
2022-09-11T22:51:07.200Z,3.53
2022-09-11T22:53:34.582Z,6.13
2022-09-11T22:56:02.165Z,3.60
2022-09-11T22:58:30.729Z,3.60
2022-09-11T23:01:00.683Z,3.70
2022-09-11T23:03:27.950Z,5.03
2022-09-11T23:06:15.963Z,3.73
2022-09-11T23:08:43.210Z,3.73
2022-09-11T23:11:11.532Z,4.27
2022-09-11T23:13:38.828Z,4.47
2022-09-11T23:16:18.896Z,16.30
2022-09-11T23:18:46.894Z,8.63
2022-09-11T23:21:14.567Z,3.97
2022-09-11T23:23:42.893Z,4.00
2022-09-11T23:26:13.242Z,5.80
2022-09-11T23:28:40.806Z,4.67
2022-09-11T23:31:14.708Z,4.40
2022-09-11T23:33:42.328Z,3.83
2022-09-11T23:36:12.547Z,5.00
2022-09-11T23:38:40.477Z,4.90
2022-09-11T23:41:07.636Z,3.47
2022-09-11T23:43:34.735Z,4.53
2022-09-11T23:46:01.851Z,2.90
2022-09-11T23:48:29.138Z,3.07
2022-09-11T23:50:56.121Z,6.83
2022-09-11T23:53:23.181Z,3.27
2022-09-11T23:55:51.038Z,5.90
2022-09-11T23:58:18.492Z,6.33
